Condor Express — 9V5373 — position and weather

sailwx.info

Track history (hours):
 
Tides and Currents Weather Stations Pressure Air Temp Water Temp Dewpoint Dewpoint Depression Visibility Wind Speed Wind Dir Waves Ship Positions

Condor Express

Operator: Condor Marine Services

Last reported at 2018-Dec-13 09:11 UTC. Time now 2018-Dec-13 13:25 UTC.
Position N 56°20' E 016°59'.

Length 235 m; draft 7.3 m.

Type: Cargo ship. MMSI: 563014500.

Date/timePositionNaut miles runAvg speedWind from/ knotsBaromVisibWave heightAir tempDewpointWater temp
2018-Dec-13 09:11N 56°20' E 016°59'211.1
2018-Dec-13 08:59N 56°18' E 016°58'611.0
2018-Dec-13 08:26N 56°12' E 016°54'511.2
2018-Dec-13 08:00N 56°08' E 016°51'510.7
2018-Dec-13 07:30N 56°03' E 016°46'510.6
2018-Dec-13 07:00N 56°00' E 016°38'510.5
2018-Dec-13 06:30N 55°57' E 016°30'510.8
2018-Dec-13 06:00N 55°55' E 016°22'611.1
2018-Dec-13 05:30N 55°52' E 016°13'611.3
2018-Dec-13 05:00N 55°49' E 016°04'611.1
2018-Dec-13 04:30N 55°47' E 015°56'611.1
2018-Dec-13 04:00N 55°44' E 015°47'510.8
2018-Dec-13 03:30N 55°41' E 015°39'511.0
2018-Dec-13 03:00N 55°39' E 015°30'510.9
2018-Dec-13 02:30N 55°36' E 015°22'510.8
2018-Dec-13 02:00N 55°34' E 015°13'611.0
2018-Dec-13 01:30N 55°31' E 015°04'2011.1
2018-Dec-12 23:42N 55°21' E 014°35'211.4
2018-Dec-12 23:29N 55°19' E 014°32'711.2
2018-Dec-12 22:53N 55°14' E 014°24'411.2
2018-Dec-12 22:30N 55°10' E 014°19'3311.5
2018-Dec-12 19:38N 55°13' E 013°21'211.4
2018-Dec-12 19:29N 55°13' E 013°18'611.8
2018-Dec-12 19:00N 55°14' E 013°08'612.0
2018-Dec-12 18:30N 55°14' E 012°58'612.0
2018-Dec-12 18:00N 55°16' E 012°48'611.7
2018-Dec-12 17:30N 55°18' E 012°38'611.6
2018-Dec-12 17:00N 55°23' E 012°39'612.0
2018-Dec-12 16:30N 55°29' E 012°41'5 9.4
2018-Dec-12 16:00N 55°34' E 012°42'4 8.0
2018-Dec-12 15:30N 55°38' E 012°42'510.0
2018-Dec-12 15:00N 55°43' E 012°41'612.7
2018-Dec-12 14:30N 55°49' E 012°42'612.8
2018-Dec-12 14:00N 55°55' E 012°38'612.6
2018-Dec-12 13:30N 56°01' E 012°38'510.2
2018-Dec-12 13:00N 56°06' E 012°33'5 9.2
2018-Dec-12 12:30N 56°09' E 012°27'5 9.1
2018-Dec-12 12:00N 56°11' E 012°20'4711.8
2018-Dec-12 08:00N 56°55' E 011°46'612.7
2018-Dec-12 07:30N 57°01' E 011°42'612.6
2018-Dec-12 07:00N 57°06' E 011°38'612.5
2018-Dec-12 06:30N 57°12' E 011°33'612.8
2018-Dec-12 06:00N 57°18' E 011°29'612.6
2018-Dec-12 05:30N 57°24' E 011°26'612.1
2018-Dec-12 05:00N 57°29' E 011°20'612.3
2018-Dec-12 04:30N 57°34' E 011°12'612.3
2018-Dec-12 04:00N 57°38' E 011°03'612.0
2018-Dec-12 03:30N 57°42' E 010°55'611.9
2018-Dec-12 03:00N 57°46' E 010°47'611.3
2018-Dec-12 02:30N 57°47' E 010°37'612.0
2018-Dec-12 02:00N 57°47' E 010°26'611.7
2018-Dec-12 01:30N 57°47' E 010°15'612.0
2018-Dec-12 00:59N 57°46' E 010°03'612.0
2018-Dec-12 00:29N 57°46' E 009°52'611.9
2018-Dec-12 00:00N 57°45' E 009°41'611.7
2018-Dec-11 23:30N 57°44' E 009°30'611.8
2018-Dec-11 23:00N 57°41' E 009°21'611.6
2018-Dec-11 22:30N 57°38' E 009°12'611.3
2018-Dec-11 22:00N 57°34' E 009°04'611.2
2018-Dec-11 21:30N 57°31' E 008°55'611.2
2018-Dec-11 21:00N 57°28' E 008°47'511.1
2018-Dec-11 20:30N 57°24' E 008°39'511.0
2018-Dec-11 20:00N 57°21' E 008°30'610.9
2018-Dec-11 19:30N 57°19' E 008°21'510.8
2018-Dec-11 19:00N 57°16' E 008°13'611.6
2018-Dec-11 18:30N 57°13' E 008°04'611.3
2018-Dec-11 18:00N 57°09' E 007°56'611.6
2018-Dec-11 17:29N 57°04' E 007°51'611.3
2018-Dec-11 16:58N 56°59' E 007°46'232 7.9
2018-Dec-10 11:36N 53°31' E 004°46'4 7.3
2018-Dec-10 11:06N 53°27' E 004°44'6 7.8
2018-Dec-10 10:22N 53°22' E 004°40'3 8.1
2018-Dec-10 09:59N 53°19' E 004°38'4 7.6
2018-Dec-10 09:30N 53°16' E 004°36'4 8.3
2018-Dec-10 09:00N 53°12' E 004°33'4 8.7
2018-Dec-10 08:30N 53°08' E 004°30'5 9.1
2018-Dec-10 08:00N 53°05' E 004°26'5 9.5
2018-Dec-10 07:30N 53°01' E 004°21'5 9.8
2018-Dec-10 07:00N 52°56' E 004°18'510.4
2018-Dec-10 06:30N 52°51' E 004°15'510.8
2018-Dec-10 06:00N 52°47' E 004°10'510.4
2018-Dec-10 05:30N 52°43' E 004°05'510.8
2018-Dec-10 05:00N 52°38' E 004°00'610.9
2018-Dec-10 04:30N 52°33' E 003°56'510.6
2018-Dec-10 04:00N 52°28' E 003°54'1010.2
2018-Dec-10 03:00N 52°18' E 003°53'5 9.4
2018-Dec-10 02:30N 52°13' E 003°54'5 9.4
2018-Dec-10 02:00N 52°09' E 003°55'5 9.1
2018-Dec-10 01:30N 52°04' E 003°57'4 7.2
2018-Dec-10 01:00N 52°01' E 003°60'5 9.5
2018-Dec-10 00:30N 51°58' E 004°06'1 1.7
2018-Dec-10 00:00N 51°58' E 004°07'0 0.0
2018-Dec-09 23:30N 51°58' E 004°07'0 0.0
2018-Dec-09 23:00N 51°58' E 004°07'0 0.0
2018-Dec-09 22:30N 51°58' E 004°07'0 0.0
2018-Dec-09 22:00N 51°58' E 004°07'0 0.0
2018-Dec-09 21:30N 51°58' E 004°07'0 0.0
2018-Dec-09 21:00N 51°58' E 004°07'0 0.0
2018-Dec-09 20:30N 51°58' E 004°07'0 0.0
2018-Dec-09 20:00N 51°58' E 004°07'0 0.0
2018-Dec-09 19:30N 51°58' E 004°07'0 0.0
2018-Dec-09 19:00N 51°58' E 004°07'0 0.0
2018-Dec-09 18:30N 51°58' E 004°07'0 0.0
2018-Dec-09 18:00N 51°58' E 004°07'0 0.0
2018-Dec-09 17:30N 51°58' E 004°07'0 0.0
2018-Dec-09 17:00N 51°58' E 004°07'0 0.0
2018-Dec-09 16:30N 51°58' E 004°07'0 0.0
2018-Dec-09 16:00N 51°58' E 004°07'0 0.0
2018-Dec-09 15:30N 51°58' E 004°07'0 0.0
2018-Dec-09 15:00N 51°58' E 004°07'0 0.0
2018-Dec-09 14:30N 51°58' E 004°07'0 0.0
2018-Dec-09 14:00N 51°58' E 004°07'0 0.0
2018-Dec-09 13:30N 51°58' E 004°07'0 0.0
2018-Dec-09 13:00N 51°58' E 004°07'0 0.0
2018-Dec-09 12:30N 51°58' E 004°07'0 0.0
2018-Dec-09 12:00N 51°58' E 004°07'0 0.0
2018-Dec-09 11:30N 51°58' E 004°07'0 0.0
2018-Dec-09 11:00N 51°58' E 004°07'0 0.0
2018-Dec-09 10:30N 51°58' E 004°07'0 0.0
2018-Dec-09 10:00N 51°58' E 004°07'0 0.0
2018-Dec-09 09:30N 51°58' E 004°07'0 0.0
2018-Dec-09 09:00N 51°58' E 004°07'0 0.0
2018-Dec-09 08:30N 51°58' E 004°07'0 0.0
2018-Dec-09 08:00N 51°58' E 004°07'0 0.0
2018-Dec-09 07:30N 51°58' E 004°07'0 0.0
2018-Dec-09 07:00N 51°58' E 004°07'0 0.0
2018-Dec-09 06:30N 51°58' E 004°07'0 0.0
2018-Dec-09 06:00N 51°58' E 004°07'0 0.0
2018-Dec-09 05:30N 51°58' E 004°07'0 0.0
2018-Dec-09 05:00N 51°58' E 004°07'0 0.0
2018-Dec-09 04:30N 51°58' E 004°07'0 0.0
2018-Dec-09 04:00N 51°58' E 004°07'0 0.0
2018-Dec-09 03:30N 51°58' E 004°07'0 0.0
2018-Dec-09 03:00N 51°58' E 004°07'0 0.0
2018-Dec-09 02:30N 51°58' E 004°07'0 0.0
2018-Dec-09 02:00N 51°58' E 004°07'0 0.0
2018-Dec-09 01:30N 51°58' E 004°07'0 0.0
2018-Dec-09 01:00N 51°58' E 004°07'0 0.0
2018-Dec-09 00:30N 51°58' E 004°07'0 0.0
2018-Dec-09 00:00N 51°58' E 004°07'0 0.0
2018-Dec-08 23:30N 51°58' E 004°07'0 0.0
2018-Dec-08 23:00N 51°58' E 004°07'0 0.0
2018-Dec-08 22:30N 51°58' E 004°07'0 0.0
2018-Dec-08 22:00N 51°58' E 004°07'0 0.0
2018-Dec-08 21:30N 51°58' E 004°07'0 0.0
2018-Dec-08 21:00N 51°58' E 004°07'0 0.0
2018-Dec-08 20:30N 51°58' E 004°07'0 0.0
2018-Dec-08 20:00N 51°58' E 004°07'0 0.0
2018-Dec-08 19:30N 51°58' E 004°07'0 0.0
2018-Dec-08 19:00N 51°58' E 004°07'0 0.0
2018-Dec-08 18:30N 51°58' E 004°07'0 0.0
2018-Dec-08 18:00N 51°58' E 004°07'0 0.0
2018-Dec-08 17:30N 51°58' E 004°07'0 0.0
2018-Dec-08 17:00N 51°58' E 004°07'0 0.0
2018-Dec-08 16:30N 51°58' E 004°07'0 0.0
2018-Dec-08 16:00N 51°58' E 004°07'0 0.0
2018-Dec-08 15:30N 51°58' E 004°07'0 0.0
2018-Dec-08 15:00N 51°58' E 004°07'0 0.0
2018-Dec-08 14:30N 51°58' E 004°07'0 0.0
2018-Dec-08 14:00N 51°58' E 004°07'0 0.0
2018-Dec-08 13:30N 51°58' E 004°07'0 0.0
2018-Dec-08 13:00N 51°58' E 004°07'0 0.0
2018-Dec-08 12:30N 51°58' E 004°07'0 0.0
2018-Dec-08 12:00N 51°58' E 004°07'0 0.0
2018-Dec-08 11:30N 51°58' E 004°07'0 0.0
2018-Dec-08 11:00N 51°58' E 004°07'0 0.0
2018-Dec-08 10:30N 51°58' E 004°07'0 0.0
2018-Dec-08 10:00N 51°58' E 004°07'0 0.0
2018-Dec-08 09:30N 51°58' E 004°07'0 0.0
2018-Dec-08 09:00N 51°58' E 004°07'0 0.0
2018-Dec-08 08:30N 51°58' E 004°07'0 0.0
2018-Dec-08 08:00N 51°58' E 004°07'0 0.0
2018-Dec-08 07:30N 51°58' E 004°07'0 0.0
2018-Dec-08 07:00N 51°58' E 004°07'0 0.0
2018-Dec-08 06:30N 51°58' E 004°07'0 0.0
2018-Dec-08 06:00N 51°58' E 004°07'0 0.0
2018-Dec-08 05:30N 51°58' E 004°07'0 0.0
2018-Dec-08 05:00N 51°58' E 004°07'0 0.0
2018-Dec-08 04:30N 51°58' E 004°07'0 0.0
2018-Dec-08 04:00N 51°58' E 004°07'0 0.0
2018-Dec-08 03:30N 51°58' E 004°07'0 0.0
2018-Dec-08 03:00N 51°58' E 004°07'0 0.0
2018-Dec-08 02:30N 51°58' E 004°07'0 0.0
2018-Dec-08 02:00N 51°58' E 004°07'0 0.0
2018-Dec-08 01:30N 51°58' E 004°07'0 0.0
2018-Dec-08 01:00N 51°58' E 004°07'0 0.0
2018-Dec-08 00:30N 51°58' E 004°07'0 0.0
2018-Dec-08 00:00N 51°58' E 004°07'0 0.0
2018-Dec-07 23:30N 51°58' E 004°07'0 0.0
2018-Dec-07 23:00N 51°58' E 004°07'0 0.0
2018-Dec-07 22:30N 51°58' E 004°07'0 0.0
2018-Dec-07 22:00N 51°58' E 004°07'0 0.0
2018-Dec-07 21:30N 51°58' E 004°07'0 0.0
2018-Dec-07 21:00N 51°58' E 004°07'0 0.0
2018-Dec-07 20:30N 51°58' E 004°07'0 0.0
2018-Dec-07 20:00N 51°58' E 004°07'0 0.0
2018-Dec-07 19:30N 51°58' E 004°07'0 0.0
2018-Dec-07 19:00N 51°58' E 004°07'0 0.0
2018-Dec-07 18:30N 51°58' E 004°07'0 0.0
2018-Dec-07 18:00N 51°58' E 004°07'0 0.0
2018-Dec-07 17:30N 51°58' E 004°07'0 0.0
2018-Dec-07 17:00N 51°58' E 004°07'0 0.0
2018-Dec-07 16:30N 51°58' E 004°07'0 0.0
2018-Dec-07 16:00N 51°58' E 004°07'0 0.0
2018-Dec-07 15:30N 51°58' E 004°07'0 0.0
2018-Dec-07 15:00N 51°58' E 004°07'0 0.0
2018-Dec-07 14:30N 51°58' E 004°07'0 0.0
2018-Dec-07 14:00N 51°58' E 004°07'0 0.0
2018-Dec-07 13:30N 51°58' E 004°07'0 0.0
2018-Dec-07 13:00N 51°58' E 004°07'0 0.0
2018-Dec-07 12:30N 51°58' E 004°07'0 0.0
2018-Dec-07 12:00N 51°58' E 004°07'0 0.0
2018-Dec-07 11:30N 51°58' E 004°07'0 0.0
2018-Dec-07 11:00N 51°58' E 004°07'0 0.0
2018-Dec-07 10:30N 51°58' E 004°07'0 0.0
2018-Dec-07 10:00N 51°58' E 004°07'0 0.0
2018-Dec-07 09:30N 51°58' E 004°07'0 0.0
2018-Dec-07 09:00N 51°58' E 004°07'0 0.0
2018-Dec-07 08:30N 51°58' E 004°07'0 0.0
2018-Dec-07 08:00N 51°58' E 004°07'0 0.0
2018-Dec-07 07:30N 51°58' E 004°07'0 0.0
2018-Dec-07 07:00N 51°58' E 004°07'0 0.0
2018-Dec-07 06:30N 51°58' E 004°07'0 0.0
2018-Dec-07 06:00N 51°58' E 004°07'0 0.0
2018-Dec-07 05:30N 51°58' E 004°07'0 0.0
2018-Dec-07 05:00N 51°58' E 004°07'0 0.0
2018-Dec-07 04:30N 51°58' E 004°07'0 0.0
2018-Dec-07 04:00N 51°58' E 004°07'0 0.0
2018-Dec-07 03:00N 51°58' E 004°07'0 0.0
2018-Dec-07 02:30N 51°58' E 004°07'0 0.0
2018-Dec-07 02:00N 51°58' E 004°07'0 0.0
2018-Dec-07 01:30N 51°58' E 004°07'0 0.0
2018-Dec-07 01:00N 51°58' E 004°07'0 0.0
2018-Dec-07 00:30N 51°58' E 004°07'0 0.0
2018-Dec-07 00:00N 51°58' E 004°07'0 0.0
2018-Dec-06 23:30N 51°58' E 004°07'0 0.0
2018-Dec-06 23:00N 51°58' E 004°07'0 0.0
2018-Dec-06 22:30N 51°58' E 004°07'0 0.0
2018-Dec-06 22:00N 51°58' E 004°07'0 0.0
2018-Dec-06 21:30N 51°58' E 004°07'0 0.0
2018-Dec-06 21:00N 51°58' E 004°07'0 0.0
2018-Dec-06 20:30N 51°58' E 004°07'0 0.0
2018-Dec-06 20:00N 51°58' E 004°07'0 0.0
2018-Dec-06 19:30N 51°58' E 004°07'0 0.0
2018-Dec-06 19:00N 51°58' E 004°07'0 0.0
2018-Dec-06 18:30N 51°58' E 004°07'0 0.0
2018-Dec-06 18:00N 51°58' E 004°07'0 0.0
2018-Dec-06 17:30N 51°58' E 004°07'0 0.0
2018-Dec-06 17:00N 51°58' E 004°07'0 0.0
2018-Dec-06 16:30N 51°58' E 004°07'0 0.0
2018-Dec-06 16:00N 51°58' E 004°07'0 0.0
2018-Dec-06 15:30N 51°58' E 004°07'0 0.0
2018-Dec-06 15:00N 51°58' E 004°07'0 0.0
2018-Dec-06 14:30N 51°58' E 004°07'0 0.0
2018-Dec-06 14:00N 51°58' E 004°07'0 0.0
2018-Dec-06 13:30N 51°58' E 004°07'0 0.0
2018-Dec-06 13:00N 51°58' E 004°07'0 0.0
2018-Dec-06 12:30N 51°58' E 004°07'0 0.0
2018-Dec-06 12:00N 51°58' E 004°07'0 0.0
2018-Dec-06 11:30N 51°58' E 004°07'0 0.0
2018-Dec-06 11:00N 51°58' E 004°07'0 0.0
2018-Dec-06 10:30N 51°58' E 004°07'0 0.0
2018-Dec-06 10:00N 51°58' E 004°07'0 0.0
2018-Dec-06 09:30N 51°58' E 004°07'0 0.0
2018-Dec-06 09:00N 51°58' E 004°07'0 0.0
2018-Dec-06 08:30N 51°58' E 004°07'0 0.0
2018-Dec-06 08:00N 51°58' E 004°07'0 0.0
2018-Dec-06 07:30N 51°58' E 004°07'0 0.0
2018-Dec-06 07:00N 51°58' E 004°07'0 0.0
2018-Dec-06 06:30N 51°58' E 004°07'0 0.0
2018-Dec-06 06:00N 51°58' E 004°07'0 0.0
2018-Dec-06 05:30N 51°58' E 004°07'0 0.0
2018-Dec-06 05:00N 51°58' E 004°07'0 0.0
2018-Dec-06 04:30N 51°58' E 004°07'0 0.0
2018-Dec-06 04:00N 51°58' E 004°07'0 0.0
2018-Dec-06 03:30N 51°58' E 004°07'0 0.0
2018-Dec-06 02:30N 51°58' E 004°07'0 0.0
2018-Dec-06 02:00N 51°58' E 004°07'0 0.0
2018-Dec-06 01:30N 51°58' E 004°07'0 0.0
2018-Dec-06 01:00N 51°58' E 004°07'0 0.0
2018-Dec-06 00:30N 51°58' E 004°07'0 0.0
2018-Dec-06 00:00N 51°58' E 004°07'0 0.0
2018-Dec-05 23:30N 51°58' E 004°07'0 0.0
2018-Dec-05 23:00N 51°58' E 004°07'0 0.0
2018-Dec-05 22:30N 51°58' E 004°07'0 0.0
2018-Dec-05 22:00N 51°58' E 004°07'0 0.0
2018-Dec-05 21:30N 51°58' E 004°07'0 0.0
2018-Dec-05 21:00N 51°58' E 004°07'0 0.0
2018-Dec-05 20:30N 51°58' E 004°07'0 0.0
2018-Dec-05 20:00N 51°58' E 004°07'0 0.0
2018-Dec-05 19:30N 51°58' E 004°07'0 0.0
2018-Dec-05 19:00N 51°58' E 004°07'0 0.0
2018-Dec-05 18:30N 51°58' E 004°07'0 0.0
2018-Dec-05 18:00N 51°58' E 004°07'0 0.0
2018-Dec-05 17:30N 51°58' E 004°07'0 0.0
2018-Dec-05 17:00N 51°58' E 004°07'0 0.0
2018-Dec-05 16:30N 51°58' E 004°07'0 0.0
2018-Dec-05 16:00N 51°58' E 004°07'0 0.0
2018-Dec-05 15:30N 51°58' E 004°07'0 0.0
2018-Dec-05 15:00N 51°58' E 004°07'0 0.0
2018-Dec-05 14:30N 51°58' E 004°07'0 0.0
2018-Dec-05 14:00N 51°58' E 004°07'0 0.0
2018-Dec-05 13:30N 51°58' E 004°07'0 0.0
2018-Dec-05 13:00N 51°58' E 004°07'0 0.0
2018-Dec-05 12:30N 51°58' E 004°07'0 0.0
2018-Dec-05 12:00N 51°58' E 004°07'0 0.0
2018-Dec-05 11:30N 51°58' E 004°07'0 0.0
2018-Dec-05 11:00N 51°58' E 004°07'0 0.0
2018-Dec-05 10:30N 51°58' E 004°07'0 0.0
2018-Dec-05 10:00N 51°58' E 004°07'0 0.0
2018-Dec-05 09:30N 51°58' E 004°07'0 0.0
2018-Dec-05 09:00N 51°58' E 004°07'0 0.0
2018-Dec-05 08:30N 51°58' E 004°07'0 0.0
2018-Dec-05 08:00N 51°58' E 004°07'0 0.0
2018-Dec-05 07:30N 51°58' E 004°07'0 0.0
2018-Dec-05 07:00N 51°58' E 004°07'0 0.0
2018-Dec-05 06:30N 51°58' E 004°07'0 0.0
2018-Dec-05 06:00N 51°58' E 004°07'0 0.0
2018-Dec-05 05:30N 51°58' E 004°07'0 0.0
2018-Dec-05 05:00N 51°58' E 004°07'0 0.0
2018-Dec-05 04:30N 51°58' E 004°07'0 0.0
2018-Dec-05 04:00N 51°58' E 004°07'0 0.0
2018-Dec-05 03:30N 51°58' E 004°07'0 0.0
2018-Dec-05 03:00N 51°58' E 004°07'0 0.0
2018-Dec-05 02:30N 51°58' E 004°07'0 0.0
2018-Dec-05 02:00N 51°58' E 004°07'1 2.0
2018-Dec-05 01:30N 51°58' E 004°06'4 8.0
2018-Dec-05 01:00N 52°00' E 003°60'510.8
2018-Dec-05 00:30N 52°01' E 003°51'4 8.1
2018-Dec-05 00:00N 52°01' E 003°45'5 9.9
2018-Dec-04 23:30N 51°59' E 003°37'611.0
2018-Dec-04 23:00N 51°55' E 003°31'2 3.2
2018-Dec-04 22:30N 51°54' E 003°33'0 0.1
2018-Dec-04 21:58N 51°54' E 003°33'0 0.2
2018-Dec-04 21:23N 51°54' E 003°33'0 0.1
2018-Dec-04 20:53N 51°54' E 003°32'0 0.1
2018-Dec-04 20:25N 51°54' E 003°32'0 0.0
2018-Dec-04 19:55N 51°54' E 003°32'0 0.0
2018-Dec-04 19:23N 51°54' E 003°32'0 0.0
2018-Dec-04 18:59N 51°54' E 003°32'0 0.0
2018-Dec-04 18:29N 51°54' E 003°32'0 0.0
2018-Dec-04 17:46N 51°54' E 003°32'0 0.0
2018-Dec-04 17:25N 51°54' E 003°32'0 0.0
2018-Dec-04 16:55N 51°54' E 003°32'0 0.0
2018-Dec-04 16:28N 51°54' E 003°32'0 0.3
2018-Dec-04 15:49N 51°54' E 003°33'0 0.0
2018-Dec-04 15:25N 51°54' E 003°33'0 0.0
2018-Dec-04 14:50N 51°54' E 003°33'0 0.0
2018-Dec-04 14:05N 51°54' E 003°33'0 0.0
2018-Dec-04 13:55N 51°54' E 003°33'0 0.0
2018-Dec-04 13:28N 51°54' E 003°33'0 0.0
2018-Dec-04 12:55N 51°54' E 003°33'0 0.0
2018-Dec-04 12:25N 51°54' E 003°33'0 0.0
2018-Dec-04 11:55N 51°54' E 003°33'0 0.0
2018-Dec-04 11:28N 51°54' E 003°33'0 0.0
2018-Dec-04 10:55N 51°54' E 003°33'0 0.2
2018-Dec-04 10:04N 51°54' E 003°33'0 0.2
2018-Dec-04 09:58N 51°54' E 003°33'0 0.1
2018-Dec-04 09:20N 51°54' E 003°33'0 0.1
2018-Dec-04 08:59N 51°54' E 003°33'0 0.1
2018-Dec-04 08:23N 51°54' E 003°32'0 0.1
2018-Dec-04 07:58N 51°54' E 003°32'0 0.0
2018-Dec-04 07:28N 51°54' E 003°32'0 0.0
2018-Dec-04 06:52N 51°54' E 003°32'0 0.0
2018-Dec-04 06:17N 51°54' E 003°32'0 0.0
2018-Dec-04 05:58N 51°54' E 003°32'0 0.0
2018-Dec-04 05:22N 51°54' E 003°32'0 0.0
2018-Dec-04 04:52N 51°54' E 003°32'0 0.0
2018-Dec-04 04:22N 51°54' E 003°32'0 0.1
2018-Dec-04 03:46N 51°54' E 003°32'0 0.1
2018-Dec-04 03:25N 51°54' E 003°33'0 0.2
2018-Dec-04 02:47N 51°54' E 003°33'0 0.2
2018-Dec-04 02:28N 51°54' E 003°33'0 0.1
2018-Dec-04 01:38N 51°54' E 003°33'0 0.1
2018-Dec-04 01:22N 51°54' E 003°33'0 0.0
2018-Dec-04 00:55N 51°54' E 003°33'0 0.0
2018-Dec-04 00:19N 51°54' E 003°33'0 0.0
2018-Dec-03 23:49N 51°54' E 003°33'0 0.0
2018-Dec-03 23:25N 51°54' E 003°33'0 0.0
2018-Dec-03 22:52N 51°54' E 003°33'0 0.0
2018-Dec-03 22:28N 51°54' E 003°33'0 0.1
2018-Dec-03 21:28N 51°54' E 003°33'0 0.1
2018-Dec-03 20:58N 51°54' E 003°33'0 0.1
2018-Dec-03 20:29N 51°54' E 003°33'0 0.2
2018-Dec-03 19:43N 51°54' E 003°33'0 0.1
2018-Dec-03 19:16N 51°54' E 003°32'0 0.1
2018-Dec-03 18:47N 51°54' E 003°32'0 0.0
2018-Dec-03 18:25N 51°54' E 003°32'0 0.0
2018-Dec-03 17:46N 51°54' E 003°32'0 0.0
2018-Dec-03 17:25N 51°54' E 003°32'0 0.1
2018-Dec-03 16:56N 51°54' E 003°32'0 0.3
2018-Dec-03 16:23N 51°54' E 003°33'0 0.1
2018-Dec-03 15:22N 51°54' E 003°33'0 0.1
2018-Dec-03 14:55N 51°54' E 003°33'0 0.1
2018-Dec-03 14:23N 51°54' E 003°33'0 0.1
2018-Dec-03 13:58N 51°54' E 003°33'0 0.0
2018-Dec-03 13:01N 51°54' E 003°33'0 0.0
2018-Dec-03 12:28N 51°54' E 003°33'0 0.0
2018-Dec-03 11:55N 51°54' E 003°33'0 0.0
2018-Dec-03 11:26N 51°54' E 003°33'0 0.0
2018-Dec-03 10:59N 51°54' E 003°33'0 0.0
2018-Dec-03 10:20N 51°54' E 003°33'0 0.1
2018-Dec-03 09:47N 51°54' E 003°33'0 0.1
2018-Dec-03 09:28N 51°54' E 003°33'  
Track history (hours):
 
Tides and Currents Weather Stations Pressure Air Temp Water Temp Dewpoint Dewpoint Depression Visibility Wind Speed Wind Dir Waves Ship Positions

Condor Express

Operator: Condor Marine Services

Last reported at 2018-Dec-13 09:11 UTC. Time now 2018-Dec-13 13:25 UTC.
Position N 56°20' E 016°59'.

Length 235 m; draft 7.3 m.

Type: Cargo ship. MMSI: 563014500.

Date/timePositionNaut miles runAvg speedWind from/ knotsBaromVisibWave heightAir tempDewpointWater temp
2018-Dec-13 09:11N 56°20' E 016°59'211.1
2018-Dec-13 08:59N 56°18' E 016°58'611.0
2018-Dec-13 08:26N 56°12' E 016°54'511.2
2018-Dec-13 08:00N 56°08' E 016°51'510.7
2018-Dec-13 07:30N 56°03' E 016°46'510.6
2018-Dec-13 07:00N 56°00' E 016°38'510.5
2018-Dec-13 06:30N 55°57' E 016°30'510.8
2018-Dec-13 06:00N 55°55' E 016°22'611.1
2018-Dec-13 05:30N 55°52' E 016°13'611.3
2018-Dec-13 05:00N 55°49' E 016°04'611.1
2018-Dec-13 04:30N 55°47' E 015°56'611.1
2018-Dec-13 04:00N 55°44' E 015°47'510.8
2018-Dec-13 03:30N 55°41' E 015°39'511.0
2018-Dec-13 03:00N 55°39' E 015°30'510.9
2018-Dec-13 02:30N 55°36' E 015°22'510.8
2018-Dec-13 02:00N 55°34' E 015°13'611.0
2018-Dec-13 01:30N 55°31' E 015°04'2011.1
2018-Dec-12 23:42N 55°21' E 014°35'211.4
2018-Dec-12 23:29N 55°19' E 014°32'711.2
2018-Dec-12 22:53N 55°14' E 014°24'411.2
2018-Dec-12 22:30N 55°10' E 014°19'3311.5
2018-Dec-12 19:38N 55°13' E 013°21'211.4
2018-Dec-12 19:29N 55°13' E 013°18'611.8
2018-Dec-12 19:00N 55°14' E 013°08'612.0
2018-Dec-12 18:30N 55°14' E 012°58'612.0
2018-Dec-12 18:00N 55°16' E 012°48'611.7
2018-Dec-12 17:30N 55°18' E 012°38'611.6
2018-Dec-12 17:00N 55°23' E 012°39'612.0
2018-Dec-12 16:30N 55°29' E 012°41'5 9.4
2018-Dec-12 16:00N 55°34' E 012°42'4 8.0
2018-Dec-12 15:30N 55°38' E 012°42'510.0
2018-Dec-12 15:00N 55°43' E 012°41'612.7
2018-Dec-12 14:30N 55°49' E 012°42'612.8
2018-Dec-12 14:00N 55°55' E 012°38'612.6
2018-Dec-12 13:30N 56°01' E 012°38'510.2
2018-Dec-12 13:00N 56°06' E 012°33'5 9.2
2018-Dec-12 12:30N 56°09' E 012°27'5 9.1
2018-Dec-12 12:00N 56°11' E 012°20'4711.8
2018-Dec-12 08:00N 56°55' E 011°46'612.7
2018-Dec-12 07:30N 57°01' E 011°42'612.6
2018-Dec-12 07:00N 57°06' E 011°38'612.5
2018-Dec-12 06:30N 57°12' E 011°33'612.8
2018-Dec-12 06:00N 57°18' E 011°29'612.6
2018-Dec-12 05:30N 57°24' E 011°26'612.1
2018-Dec-12 05:00N 57°29' E 011°20'612.3
2018-Dec-12 04:30N 57°34' E 011°12'612.3
2018-Dec-12 04:00N 57°38' E 011°03'612.0
2018-Dec-12 03:30N 57°42' E 010°55'611.9
2018-Dec-12 03:00N 57°46' E 010°47'611.3
2018-Dec-12 02:30N 57°47' E 010°37'612.0
2018-Dec-12 02:00N 57°47' E 010°26'611.7
2018-Dec-12 01:30N 57°47' E 010°15'612.0
2018-Dec-12 00:59N 57°46' E 010°03'612.0
2018-Dec-12 00:29N 57°46' E 009°52'611.9
2018-Dec-12 00:00N 57°45' E 009°41'611.7
2018-Dec-11 23:30N 57°44' E 009°30'611.8
2018-Dec-11 23:00N 57°41' E 009°21'611.6
2018-Dec-11 22:30N 57°38' E 009°12'611.3
2018-Dec-11 22:00N 57°34' E 009°04'611.2
2018-Dec-11 21:30N 57°31' E 008°55'611.2
2018-Dec-11 21:00N 57°28' E 008°47'511.1
2018-Dec-11 20:30N 57°24' E 008°39'511.0
2018-Dec-11 20:00N 57°21' E 008°30'610.9
2018-Dec-11 19:30N 57°19' E 008°21'510.8
2018-Dec-11 19:00N 57°16' E 008°13'611.6
2018-Dec-11 18:30N 57°13' E 008°04'611.3
2018-Dec-11 18:00N 57°09' E 007°56'611.6
2018-Dec-11 17:29N 57°04' E 007°51'611.3
2018-Dec-11 16:58N 56°59' E 007°46'232 7.9
2018-Dec-10 11:36N 53°31' E 004°46'4 7.3
2018-Dec-10 11:06N 53°27' E 004°44'6 7.8
2018-Dec-10 10:22N 53°22' E 004°40'3 8.1
2018-Dec-10 09:59N 53°19' E 004°38'4 7.6
2018-Dec-10 09:30N 53°16' E 004°36'4 8.3
2018-Dec-10 09:00N 53°12' E 004°33'4 8.7
2018-Dec-10 08:30N 53°08' E 004°30'5 9.1
2018-Dec-10 08:00N 53°05' E 004°26'5 9.5
2018-Dec-10 07:30N 53°01' E 004°21'5 9.8
2018-Dec-10 07:00N 52°56' E 004°18'510.4
2018-Dec-10 06:30N 52°51' E 004°15'510.8
2018-Dec-10 06:00N 52°47' E 004°10'510.4
2018-Dec-10 05:30N 52°43' E 004°05'510.8
2018-Dec-10 05:00N 52°38' E 004°00'610.9
2018-Dec-10 04:30N 52°33' E 003°56'510.6
2018-Dec-10 04:00N 52°28' E 003°54'1010.2
2018-Dec-10 03:00N 52°18' E 003°53'5 9.4
2018-Dec-10 02:30N 52°13' E 003°54'5 9.4
2018-Dec-10 02:00N 52°09' E 003°55'5 9.1
2018-Dec-10 01:30N 52°04' E 003°57'4 7.2
2018-Dec-10 01:00N 52°01' E 003°60'5 9.5
2018-Dec-10 00:30N 51°58' E 004°06'1 1.7
2018-Dec-10 00:00N 51°58' E 004°07'0 0.0
2018-Dec-09 23:30N 51°58' E 004°07'0 0.0
2018-Dec-09 23:00N 51°58' E 004°07'0 0.0
2018-Dec-09 22:30N 51°58' E 004°07'0 0.0
2018-Dec-09 22:00N 51°58' E 004°07'0 0.0
2018-Dec-09 21:30N 51°58' E 004°07'0 0.0
2018-Dec-09 21:00N 51°58' E 004°07'0 0.0
2018-Dec-09 20:30N 51°58' E 004°07'0 0.0
2018-Dec-09 20:00N 51°58' E 004°07'0 0.0
2018-Dec-09 19:30N 51°58' E 004°07'0 0.0
2018-Dec-09 19:00N 51°58' E 004°07'0 0.0
2018-Dec-09 18:30N 51°58' E 004°07'0 0.0
2018-Dec-09 18:00N 51°58' E 004°07'0 0.0
2018-Dec-09 17:30N 51°58' E 004°07'0 0.0
2018-Dec-09 17:00N 51°58' E 004°07'0 0.0
2018-Dec-09 16:30N 51°58' E 004°07'0 0.0
2018-Dec-09 16:00N 51°58' E 004°07'0 0.0
2018-Dec-09 15:30N 51°58' E 004°07'0 0.0
2018-Dec-09 15:00N 51°58' E 004°07'0 0.0
2018-Dec-09 14:30N 51°58' E 004°07'0 0.0
2018-Dec-09 14:00N 51°58' E 004°07'0 0.0
2018-Dec-09 13:30N 51°58' E 004°07'0 0.0
2018-Dec-09 13:00N 51°58' E 004°07'0 0.0
2018-Dec-09 12:30N 51°58' E 004°07'0 0.0
2018-Dec-09 12:00N 51°58' E 004°07'0 0.0
2018-Dec-09 11:30N 51°58' E 004°07'0 0.0
2018-Dec-09 11:00N 51°58' E 004°07'0 0.0
2018-Dec-09 10:30N 51°58' E 004°07'0 0.0
2018-Dec-09 10:00N 51°58' E 004°07'0 0.0
2018-Dec-09 09:30N 51°58' E 004°07'0 0.0
2018-Dec-09 09:00N 51°58' E 004°07'0 0.0
2018-Dec-09 08:30N 51°58' E 004°07'0 0.0
2018-Dec-09 08:00N 51°58' E 004°07'0 0.0
2018-Dec-09 07:30N 51°58' E 004°07'0 0.0
2018-Dec-09 07:00N 51°58' E 004°07'0 0.0
2018-Dec-09 06:30N 51°58' E 004°07'0 0.0
2018-Dec-09 06:00N 51°58' E 004°07'0 0.0
2018-Dec-09 05:30N 51°58' E 004°07'0 0.0
2018-Dec-09 05:00N 51°58' E 004°07'0 0.0
2018-Dec-09 04:30N 51°58' E 004°07'0 0.0
2018-Dec-09 04:00N 51°58' E 004°07'0 0.0
2018-Dec-09 03:30N 51°58' E 004°07'0 0.0
2018-Dec-09 03:00N 51°58' E 004°07'0 0.0
2018-Dec-09 02:30N 51°58' E 004°07'0 0.0
2018-Dec-09 02:00N 51°58' E 004°07'0 0.0
2018-Dec-09 01:30N 51°58' E 004°07'0 0.0
2018-Dec-09 01:00N 51°58' E 004°07'0 0.0
2018-Dec-09 00:30N 51°58' E 004°07'0 0.0
2018-Dec-09 00:00N 51°58' E 004°07'0 0.0
2018-Dec-08 23:30N 51°58' E 004°07'0 0.0
2018-Dec-08 23:00N 51°58' E 004°07'0 0.0
2018-Dec-08 22:30N 51°58' E 004°07'0 0.0
2018-Dec-08 22:00N 51°58' E 004°07'0 0.0
2018-Dec-08 21:30N 51°58' E 004°07'0 0.0
2018-Dec-08 21:00N 51°58' E 004°07'0 0.0
2018-Dec-08 20:30N 51°58' E 004°07'0 0.0
2018-Dec-08 20:00N 51°58' E 004°07'0 0.0
2018-Dec-08 19:30N 51°58' E 004°07'0 0.0
2018-Dec-08 19:00N 51°58' E 004°07'0 0.0
2018-Dec-08 18:30N 51°58' E 004°07'0 0.0
2018-Dec-08 18:00N 51°58' E 004°07'0 0.0
2018-Dec-08 17:30N 51°58' E 004°07'0 0.0
2018-Dec-08 17:00N 51°58' E 004°07'0 0.0
2018-Dec-08 16:30N 51°58' E 004°07'0 0.0
2018-Dec-08 16:00N 51°58' E 004°07'0 0.0
2018-Dec-08 15:30N 51°58' E 004°07'0 0.0
2018-Dec-08 15:00N 51°58' E 004°07'0 0.0
2018-Dec-08 14:30N 51°58' E 004°07'0 0.0
2018-Dec-08 14:00N 51°58' E 004°07'0 0.0
2018-Dec-08 13:30N 51°58' E 004°07'0 0.0
2018-Dec-08 13:00N 51°58' E 004°07'0 0.0
2018-Dec-08 12:30N 51°58' E 004°07'0 0.0
2018-Dec-08 12:00N 51°58' E 004°07'0 0.0
2018-Dec-08 11:30N 51°58' E 004°07'0 0.0
2018-Dec-08 11:00N 51°58' E 004°07'0 0.0
2018-Dec-08 10:30N 51°58' E 004°07'0 0.0
2018-Dec-08 10:00N 51°58' E 004°07'0 0.0
2018-Dec-08 09:30N 51°58' E 004°07'0 0.0
2018-Dec-08 09:00N 51°58' E 004°07'0 0.0
2018-Dec-08 08:30N 51°58' E 004°07'0 0.0
2018-Dec-08 08:00N 51°58' E 004°07'0 0.0
2018-Dec-08 07:30N 51°58' E 004°07'0 0.0
2018-Dec-08 07:00N 51°58' E 004°07'0 0.0
2018-Dec-08 06:30N 51°58' E 004°07'0 0.0
2018-Dec-08 06:00N 51°58' E 004°07'0 0.0
2018-Dec-08 05:30N 51°58' E 004°07'0 0.0
2018-Dec-08 05:00N 51°58' E 004°07'0 0.0
2018-Dec-08 04:30N 51°58' E 004°07'0 0.0
2018-Dec-08 04:00N 51°58' E 004°07'0 0.0
2018-Dec-08 03:30N 51°58' E 004°07'0 0.0
2018-Dec-08 03:00N 51°58' E 004°07'0 0.0
2018-Dec-08 02:30N 51°58' E 004°07'0 0.0
2018-Dec-08 02:00N 51°58' E 004°07'0 0.0
2018-Dec-08 01:30N 51°58' E 004°07'0 0.0
2018-Dec-08 01:00N 51°58' E 004°07'0 0.0
2018-Dec-08 00:30N 51°58' E 004°07'0 0.0
2018-Dec-08 00:00N 51°58' E 004°07'0 0.0
2018-Dec-07 23:30N 51°58' E 004°07'0 0.0
2018-Dec-07 23:00N 51°58' E 004°07'0 0.0
2018-Dec-07 22:30N 51°58' E 004°07'0 0.0
2018-Dec-07 22:00N 51°58' E 004°07'0 0.0
2018-Dec-07 21:30N 51°58' E 004°07'0 0.0
2018-Dec-07 21:00N 51°58' E 004°07'0 0.0
2018-Dec-07 20:30N 51°58' E 004°07'0 0.0
2018-Dec-07 20:00N 51°58' E 004°07'0 0.0
2018-Dec-07 19:30N 51°58' E 004°07'0 0.0
2018-Dec-07 19:00N 51°58' E 004°07'0 0.0
2018-Dec-07 18:30N 51°58' E 004°07'0 0.0
2018-Dec-07 18:00N 51°58' E 004°07'0 0.0
2018-Dec-07 17:30N 51°58' E 004°07'0 0.0
2018-Dec-07 17:00N 51°58' E 004°07'0 0.0
2018-Dec-07 16:30N 51°58' E 004°07'0 0.0
2018-Dec-07 16:00N 51°58' E 004°07'0 0.0
2018-Dec-07 15:30N 51°58' E 004°07'0 0.0
2018-Dec-07 15:00N 51°58' E 004°07'0 0.0
2018-Dec-07 14:30N 51°58' E 004°07'0 0.0
2018-Dec-07 14:00N 51°58' E 004°07'0 0.0
2018-Dec-07 13:30N 51°58' E 004°07'0 0.0
2018-Dec-07 13:00N 51°58' E 004°07'0 0.0
2018-Dec-07 12:30N 51°58' E 004°07'0 0.0
2018-Dec-07 12:00N 51°58' E 004°07'0 0.0
2018-Dec-07 11:30N 51°58' E 004°07'0 0.0
2018-Dec-07 11:00N 51°58' E 004°07'0 0.0
2018-Dec-07 10:30N 51°58' E 004°07'0 0.0
2018-Dec-07 10:00N 51°58' E 004°07'0 0.0
2018-Dec-07 09:30N 51°58' E 004°07'0 0.0
2018-Dec-07 09:00N 51°58' E 004°07'0 0.0
2018-Dec-07 08:30N 51°58' E 004°07'0 0.0
2018-Dec-07 08:00N 51°58' E 004°07'0 0.0
2018-Dec-07 07:30N 51°58' E 004°07'0 0.0
2018-Dec-07 07:00N 51°58' E 004°07'0 0.0
2018-Dec-07 06:30N 51°58' E 004°07'0 0.0
2018-Dec-07 06:00N 51°58' E 004°07'0 0.0
2018-Dec-07 05:30N 51°58' E 004°07'0 0.0
2018-Dec-07 05:00N 51°58' E 004°07'0 0.0
2018-Dec-07 04:30N 51°58' E 004°07'0 0.0
2018-Dec-07 04:00N 51°58' E 004°07'0 0.0
2018-Dec-07 03:00N 51°58' E 004°07'0 0.0
2018-Dec-07 02:30N 51°58' E 004°07'0 0.0
2018-Dec-07 02:00N 51°58' E 004°07'0 0.0
2018-Dec-07 01:30N 51°58' E 004°07'0 0.0
2018-Dec-07 01:00N 51°58' E 004°07'0 0.0
2018-Dec-07 00:30N 51°58' E 004°07'0 0.0
2018-Dec-07 00:00N 51°58' E 004°07'0 0.0
2018-Dec-06 23:30N 51°58' E 004°07'0 0.0
2018-Dec-06 23:00N 51°58' E 004°07'0 0.0
2018-Dec-06 22:30N 51°58' E 004°07'0 0.0
2018-Dec-06 22:00N 51°58' E 004°07'0 0.0
2018-Dec-06 21:30N 51°58' E 004°07'0 0.0
2018-Dec-06 21:00N 51°58' E 004°07'0 0.0
2018-Dec-06 20:30N 51°58' E 004°07'0 0.0
2018-Dec-06 20:00N 51°58' E 004°07'0 0.0
2018-Dec-06 19:30N 51°58' E 004°07'0 0.0
2018-Dec-06 19:00N 51°58' E 004°07'0 0.0
2018-Dec-06 18:30N 51°58' E 004°07'0 0.0
2018-Dec-06 18:00N 51°58' E 004°07'0 0.0
2018-Dec-06 17:30N 51°58' E 004°07'0 0.0
2018-Dec-06 17:00N 51°58' E 004°07'0 0.0
2018-Dec-06 16:30N 51°58' E 004°07'0 0.0
2018-Dec-06 16:00N 51°58' E 004°07'0 0.0
2018-Dec-06 15:30N 51°58' E 004°07'0 0.0
2018-Dec-06 15:00N 51°58' E 004°07'0 0.0
2018-Dec-06 14:30N 51°58' E 004°07'0 0.0
2018-Dec-06 14:00N 51°58' E 004°07'0 0.0
2018-Dec-06 13:30N 51°58' E 004°07'0 0.0
2018-Dec-06 13:00N 51°58' E 004°07'0 0.0
2018-Dec-06 12:30N 51°58' E 004°07'0 0.0
2018-Dec-06 12:00N 51°58' E 004°07'0 0.0
2018-Dec-06 11:30N 51°58' E 004°07'0 0.0
2018-Dec-06 11:00N 51°58' E 004°07'0 0.0
2018-Dec-06 10:30N 51°58' E 004°07'0 0.0
2018-Dec-06 10:00N 51°58' E 004°07'0 0.0
2018-Dec-06 09:30N 51°58' E 004°07'0 0.0
2018-Dec-06 09:00N 51°58' E 004°07'0 0.0
2018-Dec-06 08:30N 51°58' E 004°07'0 0.0
2018-Dec-06 08:00N 51°58' E 004°07'0 0.0
2018-Dec-06 07:30N 51°58' E 004°07'0 0.0
2018-Dec-06 07:00N 51°58' E 004°07'0 0.0
2018-Dec-06 06:30N 51°58' E 004°07'0 0.0
2018-Dec-06 06:00N 51°58' E 004°07'0 0.0
2018-Dec-06 05:30N 51°58' E 004°07'0 0.0
2018-Dec-06 05:00N 51°58' E 004°07'0 0.0
2018-Dec-06 04:30N 51°58' E 004°07'0 0.0
2018-Dec-06 04:00N 51°58' E 004°07'0 0.0
2018-Dec-06 03:30N 51°58' E 004°07'0 0.0
2018-Dec-06 02:30N 51°58' E 004°07'0 0.0
2018-Dec-06 02:00N 51°58' E 004°07'0 0.0
2018-Dec-06 01:30N 51°58' E 004°07'0 0.0
2018-Dec-06 01:00N 51°58' E 004°07'0 0.0
2018-Dec-06 00:30N 51°58' E 004°07'0 0.0
2018-Dec-06 00:00N 51°58' E 004°07'0 0.0
2018-Dec-05 23:30N 51°58' E 004°07'0 0.0
2018-Dec-05 23:00N 51°58' E 004°07'0 0.0
2018-Dec-05 22:30N 51°58' E 004°07'0 0.0
2018-Dec-05 22:00N 51°58' E 004°07'0 0.0
2018-Dec-05 21:30N 51°58' E 004°07'0 0.0
2018-Dec-05 21:00N 51°58' E 004°07'0 0.0
2018-Dec-05 20:30N 51°58' E 004°07'0 0.0
2018-Dec-05 20:00N 51°58' E 004°07'0 0.0
2018-Dec-05 19:30N 51°58' E 004°07'0 0.0
2018-Dec-05 19:00N 51°58' E 004°07'0 0.0
2018-Dec-05 18:30N 51°58' E 004°07'0 0.0
2018-Dec-05 18:00N 51°58' E 004°07'0 0.0
2018-Dec-05 17:30N 51°58' E 004°07'0 0.0
2018-Dec-05 17:00N 51°58' E 004°07'0 0.0
2018-Dec-05 16:30N 51°58' E 004°07'0 0.0
2018-Dec-05 16:00N 51°58' E 004°07'0 0.0
2018-Dec-05 15:30N 51°58' E 004°07'0 0.0
2018-Dec-05 15:00N 51°58' E 004°07'0 0.0
2018-Dec-05 14:30N 51°58' E 004°07'0 0.0
2018-Dec-05 14:00N 51°58' E 004°07'0 0.0
2018-Dec-05 13:30N 51°58' E 004°07'0 0.0
2018-Dec-05 13:00N 51°58' E 004°07'0 0.0
2018-Dec-05 12:30N 51°58' E 004°07'0 0.0
2018-Dec-05 12:00N 51°58' E 004°07'0 0.0
2018-Dec-05 11:30N 51°58' E 004°07'0 0.0
2018-Dec-05 11:00N 51°58' E 004°07'0 0.0
2018-Dec-05 10:30N 51°58' E 004°07'0 0.0
2018-Dec-05 10:00N 51°58' E 004°07'0 0.0
2018-Dec-05 09:30N 51°58' E 004°07'0 0.0
2018-Dec-05 09:00N 51°58' E 004°07'0 0.0
2018-Dec-05 08:30N 51°58' E 004°07'0 0.0
2018-Dec-05 08:00N 51°58' E 004°07'0 0.0
2018-Dec-05 07:30N 51°58' E 004°07'0 0.0
2018-Dec-05 07:00N 51°58' E 004°07'0 0.0
2018-Dec-05 06:30N 51°58' E 004°07'0 0.0
2018-Dec-05 06:00N 51°58' E 004°07'0 0.0
2018-Dec-05 05:30N 51°58' E 004°07'0 0.0
2018-Dec-05 05:00N 51°58' E 004°07'0 0.0
2018-Dec-05 04:30N 51°58' E 004°07'0 0.0
2018-Dec-05 04:00N 51°58' E 004°07'0 0.0
2018-Dec-05 03:30N 51°58' E 004°07'0 0.0
2018-Dec-05 03:00N 51°58' E 004°07'0 0.0
2018-Dec-05 02:30N 51°58' E 004°07'0 0.0
2018-Dec-05 02:00N 51°58' E 004°07'1 2.0
2018-Dec-05 01:30N 51°58' E 004°06'4 8.0
2018-Dec-05 01:00N 52°00' E 003°60'510.8
2018-Dec-05 00:30N 52°01' E 003°51'4 8.1
2018-Dec-05 00:00N 52°01' E 003°45'5 9.9
2018-Dec-04 23:30N 51°59' E 003°37'611.0
2018-Dec-04 23:00N 51°55' E 003°31'2 3.2
2018-Dec-04 22:30N 51°54' E 003°33'0 0.1
2018-Dec-04 21:58N 51°54' E 003°33'0 0.2
2018-Dec-04 21:23N 51°54' E 003°33'0 0.1
2018-Dec-04 20:53N 51°54' E 003°32'0 0.1
2018-Dec-04 20:25N 51°54' E 003°32'0 0.0
2018-Dec-04 19:55N 51°54' E 003°32'0 0.0
2018-Dec-04 19:23N 51°54' E 003°32'0 0.0
2018-Dec-04 18:59N 51°54' E 003°32'0 0.0
2018-Dec-04 18:29N 51°54' E 003°32'0 0.0
2018-Dec-04 17:46N 51°54' E 003°32'0 0.0
2018-Dec-04 17:25N 51°54' E 003°32'0 0.0
2018-Dec-04 16:55N 51°54' E 003°32'0 0.0
2018-Dec-04 16:28N 51°54' E 003°32'0 0.3
2018-Dec-04 15:49N 51°54' E 003°33'0 0.0
2018-Dec-04 15:25N 51°54' E 003°33'0 0.0
2018-Dec-04 14:50N 51°54' E 003°33'0 0.0
2018-Dec-04 14:05N 51°54' E 003°33'0 0.0
2018-Dec-04 13:55N 51°54' E 003°33'0 0.0
2018-Dec-04 13:28N 51°54' E 003°33'0 0.0
2018-Dec-04 12:55N 51°54' E 003°33'0 0.0
2018-Dec-04 12:25N 51°54' E 003°33'0 0.0
2018-Dec-04 11:55N 51°54' E 003°33'0 0.0
2018-Dec-04 11:28N 51°54' E 003°33'0 0.0
2018-Dec-04 10:55N 51°54' E 003°33'0 0.2
2018-Dec-04 10:04N 51°54' E 003°33'0 0.2
2018-Dec-04 09:58N 51°54' E 003°33'0 0.1
2018-Dec-04 09:20N 51°54' E 003°33'0 0.1
2018-Dec-04 08:59N 51°54' E 003°33'0 0.1
2018-Dec-04 08:23N 51°54' E 003°32'0 0.1
2018-Dec-04 07:58N 51°54' E 003°32'0 0.0
2018-Dec-04 07:28N 51°54' E 003°32'0 0.0
2018-Dec-04 06:52N 51°54' E 003°32'0 0.0
2018-Dec-04 06:17N 51°54' E 003°32'0 0.0
2018-Dec-04 05:58N 51°54' E 003°32'0 0.0
2018-Dec-04 05:22N 51°54' E 003°32'0 0.0
2018-Dec-04 04:52N 51°54' E 003°32'0 0.0
2018-Dec-04 04:22N 51°54' E 003°32'0 0.1
2018-Dec-04 03:46N 51°54' E 003°32'0 0.1
2018-Dec-04 03:25N 51°54' E 003°33'0 0.2
2018-Dec-04 02:47N 51°54' E 003°33'0 0.2
2018-Dec-04 02:28N 51°54' E 003°33'0 0.1
2018-Dec-04 01:38N 51°54' E 003°33'0 0.1
2018-Dec-04 01:22N 51°54' E 003°33'0 0.0
2018-Dec-04 00:55N 51°54' E 003°33'0 0.0
2018-Dec-04 00:19N 51°54' E 003°33'0 0.0
2018-Dec-03 23:49N 51°54' E 003°33'0 0.0
2018-Dec-03 23:25N 51°54' E 003°33'0 0.0
2018-Dec-03 22:52N 51°54' E 003°33'0 0.0
2018-Dec-03 22:28N 51°54' E 003°33'0 0.1
2018-Dec-03 21:28N 51°54' E 003°33'0 0.1
2018-Dec-03 20:58N 51°54' E 003°33'0 0.1
2018-Dec-03 20:29N 51°54' E 003°33'0 0.2
2018-Dec-03 19:43N 51°54' E 003°33'0 0.1
2018-Dec-03 19:16N 51°54' E 003°32'0 0.1
2018-Dec-03 18:47N 51°54' E 003°32'0 0.0
2018-Dec-03 18:25N 51°54' E 003°32'0 0.0
2018-Dec-03 17:46N 51°54' E 003°32'0 0.0
2018-Dec-03 17:25N 51°54' E 003°32'0 0.1
2018-Dec-03 16:56N 51°54' E 003°32'0 0.3
2018-Dec-03 16:23N 51°54' E 003°33'0 0.1
2018-Dec-03 15:22N 51°54' E 003°33'0 0.1
2018-Dec-03 14:55N 51°54' E 003°33'0 0.1
2018-Dec-03 14:23N 51°54' E 003°33'0 0.1
2018-Dec-03 13:58N 51°54' E 003°33'0 0.0
2018-Dec-03 13:01N 51°54' E 003°33'0 0.0
2018-Dec-03 12:28N 51°54' E 003°33'0 0.0
2018-Dec-03 11:55N 51°54' E 003°33'0 0.0
2018-Dec-03 11:26N 51°54' E 003°33'0 0.0
2018-Dec-03 10:59N 51°54' E 003°33'0 0.0
2018-Dec-03 10:20N 51°54' E 003°33'0 0.1
2018-Dec-03 09:47N 51°54' E 003°33'0 0.1
2018-Dec-03 09:28N 51°54' E 003°33'  

Dump ship's entire track history